createdAt,value
2022-11-12T00:00:30.177Z,1018.12
2022-11-12T00:01:02.409Z,1018.12
2022-11-12T00:01:33.710Z,1018.32
2022-11-12T00:02:06.468Z,1018.32
2022-11-12T00:02:34.099Z,1018.01
2022-11-12T00:02:53.754Z,1018.01
2022-11-12T00:03:25.792Z,1018.01
2022-11-12T00:03:57.609Z,1018.32
2022-11-12T00:04:29.575Z,1018.32
2022-11-12T00:05:01.844Z,1018.22
2022-11-12T00:05:33.715Z,1018.12
2022-11-12T00:06:05.583Z,1018.12
2022-11-12T00:06:34.172Z,1018.12
2022-11-12T00:06:53.628Z,1018.12
2022-11-12T00:07:26.327Z,1018.12
2022-11-12T00:07:57.723Z,1018.12
2022-11-12T00:08:30.587Z,1018.12
2022-11-12T00:09:01.651Z,1018.12
2022-11-12T00:09:35.558Z,1018.32
2022-11-12T00:10:05.922Z,1018.32
2022-11-12T00:10:33.985Z,1018.12
2022-11-12T00:10:53.765Z,1018.12
2022-11-12T00:11:25.662Z,1018.12
2022-11-12T00:11:58.580Z,1018.12
2022-11-12T00:12:29.721Z,1018.12
2022-11-12T00:13:02.362Z,1018.22
2022-11-12T00:13:33.567Z,1018.12
2022-11-12T00:14:06.265Z,1018.12
2022-11-12T00:14:33.914Z,1018.01
2022-11-12T00:14:53.674Z,1018.01
2022-11-12T00:15:25.852Z,1018.01
2022-11-12T00:15:57.601Z,1018.01
2022-11-12T00:16:29.730Z,1018.01
2022-11-12T00:17:18.684Z,1018.12
2022-11-12T00:17:49.598Z,1018.01
2022-11-12T00:18:23.024Z,1018.01
2022-11-12T00:18:39.982Z,1017.91
2022-11-12T00:19:09.850Z,1017.91
2022-11-12T00:19:33.961Z,1018.01
2022-11-12T00:19:57.548Z,1018.01
2022-11-12T00:20:30.713Z,1018.01
2022-11-12T00:21:01.735Z,1018.01
2022-11-12T00:21:35.044Z,1018.12
2022-11-12T00:22:05.657Z,1018.12
2022-11-12T00:22:33.928Z,1018.12
2022-11-12T00:22:53.785Z,1018.12
2022-11-12T00:23:25.790Z,1018.12
2022-11-12T00:23:58.431Z,1018.01
2022-11-12T00:24:29.604Z,1018.01
2022-11-12T00:25:02.878Z,1018.01
2022-11-12T00:25:33.865Z,1018.12
2022-11-12T00:26:22.694Z,1018.12
2022-11-12T00:26:39.865Z,1018.01
2022-11-12T00:27:09.745Z,1018.01
2022-11-12T00:27:34.121Z,1018.12
2022-11-12T00:27:57.805Z,1018.12
2022-11-12T00:28:36.294Z,1018.12
2022-11-12T00:29:01.597Z,1017.91
2022-11-12T00:29:35.799Z,1018.12
2022-11-12T00:30:05.948Z,1018.12
2022-11-12T00:30:34.085Z,1018.01
2022-11-12T00:30:53.702Z,1018.01
2022-11-12T00:31:25.728Z,1018.01
2022-11-12T00:31:58.903Z,1017.91
2022-11-12T00:32:29.593Z,1017.91
2022-11-12T00:33:02.449Z,1018.01
2022-11-12T00:33:34.625Z,1018.01
2022-11-12T00:34:06.795Z,1018.01
2022-11-12T00:34:33.953Z,1018.01
2022-11-12T00:34:53.580Z,1018.01
2022-11-12T00:35:25.682Z,1018.01
2022-11-12T00:36:14.523Z,1018.01
2022-11-12T00:36:34.071Z,1017.91
2022-11-12T00:37:01.620Z,1017.91
2022-11-12T00:37:33.666Z,1018.12
2022-11-12T00:38:05.806Z,1018.12
2022-11-12T00:38:33.913Z,1017.71
2022-11-12T00:38:53.765Z,1017.71
2022-11-12T00:39:26.439Z,1017.71
2022-11-12T00:39:57.591Z,1017.91
2022-11-12T00:40:30.719Z,1017.91
2022-11-12T00:41:01.798Z,1018.12
2022-11-12T00:41:35.554Z,1018.01
2022-11-12T00:42:05.881Z,1018.01
2022-11-12T00:42:33.920Z,1018.01
2022-11-12T00:42:53.815Z,1018.01
2022-11-12T00:43:25.766Z,1018.01
2022-11-12T00:43:58.354Z,1018.01
2022-11-12T00:44:29.638Z,1018.01
2022-11-12T00:45:02.793Z,1018.12
2022-11-12T00:45:33.746Z,1017.91
2022-11-12T00:46:06.516Z,1017.91
2022-11-12T00:46:34.119Z,1018.01
2022-11-12T00:46:53.727Z,1018.01
2022-11-12T00:47:25.795Z,1018.01
2022-11-12T00:47:57.672Z,1017.91
2022-11-12T00:48:29.803Z,1017.91
2022-11-12T00:49:01.732Z,1018.01
2022-11-12T00:49:33.758Z,1017.81
2022-11-12T00:50:05.956Z,1017.81
2022-11-12T00:50:34.136Z,1018.12
2022-11-12T00:50:53.666Z,1018.12
2022-11-12T00:51:26.541Z,1018.12
2022-11-12T00:51:57.794Z,1018.01
2022-11-12T00:52:30.489Z,1018.01
2022-11-12T00:53:01.687Z,1018.01
2022-11-12T00:53:35.740Z,1018.12
2022-11-12T00:54:05.762Z,1018.12
2022-11-12T00:54:34.071Z,1018.22
2022-11-12T00:54:53.665Z,1018.22
2022-11-12T00:55:25.768Z,1018.22
2022-11-12T00:55:58.754Z,1018.12
2022-11-12T00:56:34.479Z,1018.12
2022-11-12T00:57:02.489Z,1018.01
2022-11-12T00:57:33.814Z,1018.22
2022-11-12T00:58:06.560Z,1018.22
2022-11-12T00:58:33.981Z,1018.01
2022-11-12T00:58:54.083Z,1018.01
2022-11-12T00:59:25.589Z,1018.01
2022-11-12T00:59:57.599Z,1018.12
2022-11-12T01:00:29.957Z,1018.12
2022-11-12T01:01:01.897Z,1018.22
2022-11-12T01:01:33.622Z,1017.91
2022-11-12T01:02:05.598Z,1017.91
2022-11-12T01:02:40.721Z,1018.01
2022-11-12T01:02:53.735Z,1018.01
2022-11-12T01:03:26.545Z,1018.01
2022-11-12T01:03:57.702Z,1018.22
2022-11-12T01:04:30.577Z,1018.22
2022-11-12T01:05:01.964Z,1018.22
2022-11-12T01:05:33.738Z,1018.22
2022-11-12T01:06:06.026Z,1018.22
2022-11-12T01:06:35.054Z,1018.12
2022-11-12T01:06:53.698Z,1018.12
2022-11-12T01:07:25.738Z,1018.12
2022-11-12T01:07:58.646Z,1018.12
2022-11-12T01:08:33.992Z,1018.12
2022-11-12T01:09:01.881Z,1018.12
2022-11-12T01:09:33.920Z,1018.22
2022-11-12T01:10:05.699Z,1018.22
2022-11-12T01:10:34.017Z,1018.22
2022-11-12T01:10:53.920Z,1018.22
2022-11-12T01:11:34.761Z,1018.22
2022-11-12T01:11:57.671Z,1018.22
2022-11-12T01:12:29.704Z,1018.22
2022-11-12T01:13:03.001Z,1018.12
2022-11-12T01:13:33.767Z,1018.12
2022-11-12T01:14:05.618Z,1018.12
2022-11-12T01:14:34.131Z,1018.32
2022-11-12T01:14:54.077Z,1018.32
2022-11-12T01:15:25.953Z,1018.32
2022-11-12T01:15:58.374Z,1017.91
2022-11-12T01:16:33.676Z,1017.91
2022-11-12T01:17:02.157Z,1018.01
2022-11-12T01:17:33.768Z,1018.12
2022-11-12T01:18:06.418Z,1018.12
2022-11-12T01:18:34.167Z,1018.01
2022-11-12T01:18:53.695Z,1018.01
2022-11-12T01:19:25.790Z,1018.01
2022-11-12T01:19:57.642Z,1018.22
2022-11-12T01:20:29.731Z,1018.22
2022-11-12T01:21:01.774Z,1018.12
2022-11-12T01:21:34.458Z,1018.01
2022-11-12T01:22:05.816Z,1018.01
2022-11-12T01:22:34.263Z,1018.01
2022-11-12T01:22:53.593Z,1018.01
2022-11-12T01:23:26.605Z,1018.01
2022-11-12T01:23:57.795Z,1018.01
2022-11-12T01:24:30.412Z,1018.01
2022-11-12T01:25:01.832Z,1018.32
2022-11-12T01:25:34.897Z,1018.12
2022-11-12T01:26:05.760Z,1018.12
2022-11-12T01:26:33.972Z,1017.91
2022-11-12T01:26:53.619Z,1017.91
2022-11-12T01:27:27.719Z,1017.91
2022-11-12T01:27:58.169Z,1018.12
2022-11-12T01:28:29.811Z,1018.12
2022-11-12T01:29:02.431Z,1018.01
2022-11-12T01:29:33.638Z,1018.22
2022-11-12T01:30:06.417Z,1018.22
2022-11-12T01:30:33.930Z,1018.32
2022-11-12T01:30:53.700Z,1018.32
2022-11-12T01:31:25.618Z,1018.32
2022-11-12T01:31:57.827Z,1018.01
2022-11-12T01:32:29.818Z,1018.01
2022-11-12T01:33:01.905Z,1018.12
2022-11-12T01:33:34.907Z,1018.12
2022-11-12T01:34:05.791Z,1018.12
2022-11-12T01:34:33.956Z,1018.12
2022-11-12T01:34:55.461Z,1018.12
2022-11-12T01:35:25.740Z,1018.12
2022-11-12T01:35:58.441Z,1018.12
2022-11-12T01:36:29.758Z,1018.12
2022-11-12T01:37:02.150Z,1018.01
2022-11-12T01:37:33.655Z,1018.32
2022-11-12T01:38:06.472Z,1018.32
2022-11-12T01:38:33.933Z,1018.22
2022-11-12T01:39:00.564Z,1018.22
2022-11-12T01:39:35.894Z,1018.12
2022-11-12T01:39:57.615Z,1018.12
2022-11-12T01:40:34.853Z,1018.12
2022-11-12T01:41:01.767Z,1018.01
2022-11-12T01:41:33.758Z,1018.12
2022-11-12T01:42:05.613Z,1018.12
2022-11-12T01:42:34.499Z,1018.12
2022-11-12T01:42:54.355Z,1018.12
2022-11-12T01:43:25.847Z,1018.12
2022-11-12T01:43:58.490Z,1018.01
2022-11-12T01:44:29.645Z,1018.01
2022-11-12T01:45:03.092Z,1018.12
2022-11-12T01:45:33.828Z,1018.12
2022-11-12T01:46:06.536Z,1018.12
2022-11-12T01:46:34.141Z,1018.32
2022-11-12T01:46:53.611Z,1018.32
2022-11-12T01:47:25.696Z,1018.32
2022-11-12T01:47:57.902Z,1018.01
2022-11-12T01:48:29.742Z,1018.01
2022-11-12T01:49:01.732Z,1018.22
2022-11-12T01:49:33.653Z,1018.12
2022-11-12T01:50:06.098Z,1018.12
2022-11-12T01:50:33.981Z,1018.12
2022-11-12T01:50:53.889Z,1018.12
2022-11-12T01:51:26.499Z,1018.12
2022-11-12T01:51:57.714Z,1018.01
2022-11-12T01:52:31.441Z,1018.01
2022-11-12T01:53:01.860Z,1018.12
2022-11-12T01:53:34.469Z,1018.22
2022-11-12T01:54:05.662Z,1018.22
2022-11-12T01:54:33.987Z,1018.32
2022-11-12T01:54:53.925Z,1018.32
2022-11-12T01:55:25.730Z,1018.32
2022-11-12T01:55:58.351Z,1018.22
2022-11-12T01:56:29.744Z,1018.22
2022-11-12T01:57:18.233Z,1018.22
2022-11-12T01:57:49.643Z,1018.22
2022-11-12T01:58:21.707Z,1018.22
2022-11-12T01:58:39.728Z,1018.32
2022-11-12T01:59:09.905Z,1018.32
2022-11-12T02:00:16.264Z,1018.32
2022-11-12T02:01:22.475Z,1018.32
2022-11-12T02:02:28.607Z,1018.32
2022-11-12T02:03:34.738Z,1018.32
2022-11-12T02:04:30.493Z,1018.12
2022-11-12T02:05:02.906Z,1018.22
2022-11-12T02:05:35.128Z,1018.52
2022-11-12T02:06:05.765Z,1018.52
2022-11-12T02:06:36.290Z,1018.22
2022-11-12T02:06:54.554Z,1018.22
2022-11-12T02:07:25.821Z,1018.22
2022-11-12T02:07:58.343Z,1018.12
2022-11-12T02:08:29.722Z,1018.12
2022-11-12T02:09:02.538Z,1018.22
2022-11-12T02:09:33.705Z,1018.22
2022-11-12T02:10:06.996Z,1018.22
2022-11-12T02:10:34.086Z,1018.01
2022-11-12T02:10:54.130Z,1018.01
2022-11-12T02:11:25.601Z,1018.01
2022-11-12T02:11:57.801Z,1018.01
2022-11-12T02:12:34.156Z,1018.01
2022-11-12T02:13:01.676Z,1018.01
2022-11-12T02:13:34.221Z,1018.22
2022-11-12T02:14:05.704Z,1018.22
2022-11-12T02:14:33.953Z,1018.12
2022-11-12T02:15:10.342Z,1018.12
2022-11-12T02:15:33.922Z,1017.91
2022-11-12T02:15:57.740Z,1017.91
2022-11-12T02:16:30.300Z,1017.91
2022-11-12T02:17:01.838Z,1018.22
2022-11-12T02:17:34.889Z,1018.12
2022-11-12T02:18:05.625Z,1018.12
2022-11-12T02:18:33.942Z,1018.22
2022-11-12T02:18:54.175Z,1018.22
2022-11-12T02:19:25.751Z,1018.22
2022-11-12T02:19:58.547Z,1018.32
2022-11-12T02:20:34.057Z,1018.22
2022-11-12T02:21:02.348Z,1018.22
2022-11-12T02:21:33.801Z,1018.22
2022-11-12T02:22:06.483Z,1018.22
2022-11-12T02:22:34.228Z,1018.32
2022-11-12T02:22:53.763Z,1018.32
2022-11-12T02:23:25.798Z,1018.32
2022-11-12T02:23:58.237Z,1018.42
2022-11-12T02:24:29.735Z,1018.42
2022-11-12T02:25:01.822Z,1018.32
2022-11-12T02:25:33.859Z,1018.01
2022-11-12T02:26:05.807Z,1018.01
2022-11-12T02:26:34.078Z,1018.12
2022-11-12T02:26:53.680Z,1018.12
2022-11-12T02:27:26.531Z,1018.12
2022-11-12T02:27:57.791Z,1018.22
2022-11-12T02:28:30.351Z,1018.22
2022-11-12T02:29:01.598Z,1018.32
2022-11-12T02:29:34.571Z,1018.01
2022-11-12T02:30:05.988Z,1018.01
2022-11-12T02:30:34.005Z,1018.22
2022-11-12T02:30:53.818Z,1018.22
2022-11-12T02:31:25.660Z,1018.22
2022-11-12T02:31:58.229Z,1018.12
2022-11-12T02:32:29.801Z,1018.12
2022-11-12T02:33:02.454Z,1018.12
2022-11-12T02:33:33.713Z,1018.12
2022-11-12T02:34:06.616Z,1018.12
2022-11-12T02:34:33.969Z,1018.22
2022-11-12T02:34:54.040Z,1018.22
2022-11-12T02:35:25.793Z,1018.22
2022-11-12T02:35:57.696Z,1018.22
2022-11-12T02:36:29.816Z,1018.22
2022-11-12T02:37:01.818Z,1018.22
2022-11-12T02:37:33.662Z,1018.22
2022-11-12T02:38:22.572Z,1018.22
2022-11-12T02:38:39.625Z,1018.22
2022-11-12T02:39:10.849Z,1018.22
2022-11-12T02:39:34.680Z,1018.22
2022-11-12T02:39:57.680Z,1018.22
2022-11-12T02:40:30.795Z,1018.22
2022-11-12T02:41:01.850Z,1018.12
2022-11-12T02:41:34.822Z,1018.01
2022-11-12T02:42:05.657Z,1018.01
2022-11-12T02:42:34.099Z,1018.01
2022-11-12T02:42:53.719Z,1018.01
2022-11-12T02:43:25.790Z,1018.01
2022-11-12T02:44:01.825Z,1018.22
2022-11-12T02:44:29.620Z,1018.22
2022-11-12T02:45:02.765Z,1018.12
2022-11-12T02:45:33.797Z,1018.22
2022-11-12T02:46:06.275Z,1018.22
2022-11-12T02:46:34.109Z,1018.22
2022-11-12T02:46:53.629Z,1018.22
2022-11-12T02:47:25.699Z,1018.22
2022-11-12T02:47:57.663Z,1017.91
2022-11-12T02:48:30.317Z,1017.91
2022-11-12T02:49:01.812Z,1018.12
2022-11-12T02:49:34.499Z,1018.32
2022-11-12T02:50:05.855Z,1018.32
2022-11-12T02:50:34.124Z,1018.01
2022-11-12T02:50:53.808Z,1018.01
2022-11-12T02:51:26.490Z,1018.01
2022-11-12T02:51:59.191Z,1018.12
2022-11-12T02:52:30.360Z,1018.12
2022-11-12T02:53:01.665Z,1018.01
2022-11-12T02:53:35.046Z,1018.12
2022-11-12T02:54:05.799Z,1018.12
2022-11-12T02:54:34.028Z,1018.01
2022-11-12T02:54:55.450Z,1018.01
2022-11-12T02:55:25.791Z,1018.01
2022-11-12T02:55:58.567Z,1018.12
2022-11-12T02:56:29.788Z,1018.12
2022-11-12T02:57:02.424Z,1018.01
2022-11-12T02:57:33.643Z,1017.91
2022-11-12T02:58:06.651Z,1017.91
2022-11-12T02:58:33.966Z,1018.12
2022-11-12T02:58:53.790Z,1018.12
2022-11-12T02:59:25.711Z,1018.12
2022-11-12T02:59:57.646Z,1017.91
2022-11-12T03:00:29.859Z,1017.91
2022-11-12T03:01:01.969Z,1018.01
2022-11-12T03:01:34.297Z,1018.22
2022-11-12T03:02:05.695Z,1018.22
2022-11-12T03:02:34.141Z,1018.01
2022-11-12T03:02:53.765Z,1018.01
2022-11-12T03:03:26.482Z,1018.01
2022-11-12T03:03:57.671Z,1017.81
2022-11-12T03:04:30.552Z,1017.81
2022-11-12T03:05:01.878Z,1018.01
2022-11-12T03:05:33.891Z,1018.22
2022-11-12T03:06:06.227Z,1018.22
2022-11-12T03:06:34.263Z,1018.01
2022-11-12T03:07:26.101Z,1018.01
2022-11-12T03:07:57.871Z,1017.91
2022-11-12T03:08:30.406Z,1017.91
2022-11-12T03:09:01.661Z,1017.91
2022-11-12T03:09:34.648Z,1018.12
2022-11-12T03:10:05.928Z,1018.12
2022-11-12T03:10:33.983Z,1017.91
2022-11-12T03:10:53.828Z,1017.91
2022-11-12T03:11:25.731Z,1017.91
2022-11-12T03:11:58.604Z,1018.01
2022-11-12T03:12:29.881Z,1018.01
2022-11-12T03:13:06.521Z,1017.91
2022-11-12T03:13:33.667Z,1017.91
2022-11-12T03:14:06.596Z,1017.91
2022-11-12T03:14:33.963Z,1017.81
2022-11-12T03:14:53.853Z,1017.81
2022-11-12T03:15:26.971Z,1017.81
2022-11-12T03:15:57.627Z,1017.81
2022-11-12T03:16:30.468Z,1017.81
2022-11-12T03:17:01.811Z,1017.81
2022-11-12T03:17:34.716Z,1018.01
2022-11-12T03:18:05.659Z,1018.01
2022-11-12T03:18:33.997Z,1018.12
2022-11-12T03:18:53.800Z,1018.12
2022-11-12T03:19:25.848Z,1018.12
2022-11-12T03:19:59.564Z,1017.91
2022-11-12T03:20:29.818Z,1017.91
2022-11-12T03:21:02.381Z,1017.81
2022-11-12T03:21:34.022Z,1017.91
2022-11-12T03:22:25.658Z,1017.91
2022-11-12T03:22:42.048Z,1017.91
2022-11-12T03:23:10.141Z,1017.91
2022-11-12T03:23:34.859Z,1017.91
2022-11-12T03:23:58.088Z,1017.91
2022-11-12T03:24:30.636Z,1017.91
2022-11-12T03:25:02.872Z,1017.91
2022-11-12T03:25:34.886Z,1017.81
2022-11-12T03:26:05.649Z,1017.81
2022-11-12T03:26:35.956Z,1017.91
2022-11-12T03:26:53.725Z,1017.91
2022-11-12T03:27:28.407Z,1017.91
2022-11-12T03:27:58.457Z,1017.91
2022-11-12T03:28:29.904Z,1017.91
2022-11-12T03:29:02.750Z,1017.81
2022-11-12T03:29:33.836Z,1017.61
2022-11-12T03:30:06.921Z,1017.61
2022-11-12T03:30:34.115Z,1017.71
2022-11-12T03:30:53.851Z,1017.71
2022-11-12T03:31:25.649Z,1017.71
2022-11-12T03:31:57.878Z,1017.81
2022-11-12T03:32:30.326Z,1017.81
2022-11-12T03:33:01.935Z,1017.91
2022-11-12T03:33:34.074Z,1017.91
2022-11-12T03:34:06.044Z,1017.91
2022-11-12T03:34:34.025Z,1018.01
2022-11-12T03:34:55.538Z,1018.01
2022-11-12T03:35:26.754Z,1018.01
2022-11-12T03:35:57.765Z,1017.81
2022-11-12T03:36:30.577Z,1017.81
2022-11-12T03:37:01.650Z,1017.91
2022-11-12T03:37:34.675Z,1017.71
2022-11-12T03:38:05.787Z,1017.71
2022-11-12T03:38:33.949Z,1017.91
2022-11-12T03:38:53.822Z,1017.91
2022-11-12T03:39:25.666Z,1017.91
2022-11-12T03:39:58.577Z,1017.81
2022-11-12T03:40:29.988Z,1017.81
2022-11-12T03:41:02.842Z,1018.01
2022-11-12T03:41:33.659Z,1017.81
2022-11-12T03:42:06.438Z,1017.81
2022-11-12T03:42:33.940Z,1017.81
2022-11-12T03:42:53.876Z,1017.81
2022-11-12T03:43:25.807Z,1017.81
2022-11-12T03:43:57.699Z,1017.91
2022-11-12T03:44:29.657Z,1017.91
2022-11-12T03:45:03.162Z,1017.81
2022-11-12T03:45:33.969Z,1018.01
2022-11-12T03:46:05.680Z,1018.01
2022-11-12T03:46:34.085Z,1017.71
2022-11-12T03:46:54.810Z,1017.71
2022-11-12T03:47:28.399Z,1017.71
2022-11-12T03:47:57.770Z,1017.81
2022-11-12T03:48:30.523Z,1017.81
2022-11-12T03:49:01.675Z,1017.81
2022-11-12T03:49:34.715Z,1017.61
2022-11-12T03:50:05.968Z,1017.61
2022-11-12T03:50:35.184Z,1017.81
2022-11-12T03:50:53.842Z,1017.81
2022-11-12T03:51:25.748Z,1017.81
2022-11-12T03:51:57.847Z,1017.71
2022-11-12T03:52:29.738Z,1017.71
2022-11-12T03:53:02.818Z,1017.61
2022-11-12T03:53:33.715Z,1017.54
2022-11-12T03:54:05.788Z,1017.54
2022-11-12T03:54:34.110Z,1017.61
2022-11-12T03:54:53.738Z,1017.61
2022-11-12T03:55:26.658Z,1017.61
2022-11-12T03:55:57.732Z,1017.71
2022-11-12T03:56:30.898Z,1017.71
2022-11-12T03:57:01.774Z,1017.54
2022-11-12T03:57:35.549Z,1017.71
2022-11-12T03:58:05.687Z,1017.71
2022-11-12T03:58:35.052Z,1017.71
2022-11-12T03:58:53.879Z,1017.71
2022-11-12T03:59:25.749Z,1017.71
2022-11-12T03:59:59.093Z,1017.71
2022-11-12T04:00:30.963Z,1017.71
2022-11-12T04:01:02.607Z,1017.71
2022-11-12T04:01:33.753Z,1017.81
2022-11-12T04:02:06.501Z,1017.81
2022-11-12T04:02:34.882Z,1017.81
2022-11-12T04:02:53.839Z,1017.81
2022-11-12T04:03:25.907Z,1017.81
2022-11-12T04:03:57.806Z,1017.91
2022-11-12T04:04:29.771Z,1017.91
2022-11-12T04:05:02.053Z,1017.91
2022-11-12T04:05:33.838Z,1017.34
2022-11-12T04:06:05.844Z,1017.34
2022-11-12T04:06:34.277Z,1017.61
2022-11-12T04:06:53.723Z,1017.61
2022-11-12T04:07:26.458Z,1017.61
2022-11-12T04:07:57.805Z,1017.54
2022-11-12T04:08:30.509Z,1017.54
2022-11-12T04:09:01.690Z,1017.54
2022-11-12T04:09:34.821Z,1017.71
2022-11-12T04:10:05.963Z,1017.71
2022-11-12T04:10:34.053Z,1017.61
2022-11-12T04:10:53.814Z,1017.61
2022-11-12T04:11:25.741Z,1017.61
2022-11-12T04:11:58.440Z,1017.71
2022-11-12T04:12:30.154Z,1017.71
2022-11-12T04:13:02.832Z,1017.71
2022-11-12T04:13:34.777Z,1017.54
2022-11-12T04:14:06.611Z,1017.54
2022-11-12T04:14:33.974Z,1017.54
2022-11-12T04:14:54.078Z,1017.54
2022-11-12T04:15:25.859Z,1017.54
2022-11-12T04:15:57.794Z,1017.81
2022-11-12T04:16:29.901Z,1017.81
2022-11-12T04:17:01.919Z,1017.71
2022-11-12T04:17:34.597Z,1017.61
2022-11-12T04:18:05.974Z,1017.61
2022-11-12T04:18:34.077Z,1017.61
2022-11-12T04:18:53.889Z,1017.61
2022-11-12T04:19:26.395Z,1017.61
2022-11-12T04:19:57.663Z,1017.54
2022-11-12T04:20:30.719Z,1017.54
2022-11-12T04:21:02.546Z,1017.54
2022-11-12T04:21:34.968Z,1017.54
2022-11-12T04:22:06.336Z,1017.54
2022-11-12T04:22:34.123Z,1017.61
2022-11-12T04:22:53.856Z,1017.61
2022-11-12T04:23:26.754Z,1017.61
2022-11-12T04:23:58.452Z,1017.54
2022-11-12T04:24:29.680Z,1017.54
2022-11-12T04:25:02.878Z,1017.54
2022-11-12T04:25:33.917Z,1017.71
2022-11-12T04:26:06.398Z,1017.71
2022-11-12T04:26:33.928Z,1017.61
2022-11-12T04:26:53.851Z,1017.61
2022-11-12T04:27:25.820Z,1017.61
2022-11-12T04:27:57.738Z,1017.61
2022-11-12T04:28:29.746Z,1017.61
2022-11-12T04:29:01.871Z,1017.71
2022-11-12T04:29:37.436Z,1017.54
2022-11-12T04:30:05.822Z,1017.54
2022-11-12T04:30:34.540Z,1017.54
2022-11-12T04:30:53.913Z,1017.54
2022-11-12T04:31:26.425Z,1017.54
2022-11-12T04:31:57.898Z,1017.61
2022-11-12T04:32:30.559Z,1017.61
2022-11-12T04:33:01.932Z,1017.54
2022-11-12T04:33:35.374Z,1017.54
2022-11-12T04:34:05.765Z,1017.54
2022-11-12T04:34:34.222Z,1017.54
2022-11-12T04:34:53.933Z,1017.54
2022-11-12T04:35:26.047Z,1017.54
2022-11-12T04:35:58.501Z,1017.71
2022-11-12T04:36:29.681Z,1017.71
2022-11-12T04:37:02.573Z,1017.44
2022-11-12T04:37:34.717Z,1017.44
2022-11-12T04:38:06.463Z,1017.44
2022-11-12T04:38:34.860Z,1017.54
2022-11-12T04:38:53.687Z,1017.54
2022-11-12T04:39:25.841Z,1017.54
2022-11-12T04:39:57.838Z,1017.54
2022-11-12T04:40:30.015Z,1017.54
2022-11-12T04:41:01.714Z,1017.54
2022-11-12T04:41:33.958Z,1017.54
2022-11-12T04:42:05.847Z,1017.54
2022-11-12T04:42:39.287Z,1017.54
2022-11-12T04:43:09.725Z,1017.54
2022-11-12T04:43:34.447Z,1017.54
2022-11-12T04:43:58.216Z,1017.54
2022-11-12T04:44:29.814Z,1017.54
2022-11-12T04:45:02.663Z,1017.71
2022-11-12T04:45:34.316Z,1017.44
2022-11-12T04:46:07.163Z,1017.44
2022-11-12T04:46:34.800Z,1017.61
2022-11-12T04:46:55.203Z,1017.61
2022-11-12T04:47:26.270Z,1017.61
2022-11-12T04:47:58.412Z,1017.44
2022-11-12T04:48:30.166Z,1017.44
2022-11-12T04:49:02.327Z,1017.44
2022-11-12T04:49:37.030Z,1017.54
2022-11-12T04:50:06.076Z,1017.54
2022-11-12T04:50:34.019Z,1017.61
2022-11-12T04:50:54.014Z,1017.61
2022-11-12T04:51:26.967Z,1017.61
2022-11-12T04:51:57.714Z,1017.34
2022-11-12T04:52:29.852Z,1017.34
2022-11-12T04:53:02.186Z,1017.24
2022-11-12T04:53:39.168Z,1017.44
2022-11-12T04:54:05.741Z,1017.44
2022-11-12T04:55:05.340Z,1017.44
2022-11-12T04:55:25.914Z,1017.44
2022-11-12T04:55:58.008Z,1017.44
2022-11-12T04:56:30.454Z,1017.44
2022-11-12T04:57:01.765Z,1017.44
2022-11-12T04:57:37.108Z,1017.44
2022-11-12T04:58:05.863Z,1017.44
2022-11-12T04:58:34.153Z,1017.54
2022-11-12T04:58:53.716Z,1017.54
2022-11-12T04:59:26.328Z,1017.54
2022-11-12T05:00:17.456Z,1017.34
2022-11-12T05:00:45.978Z,1017.34
2022-11-12T05:01:18.341Z,1017.34
2022-11-12T05:01:49.857Z,1017.34
2022-11-12T05:02:23.106Z,1017.34
2022-11-12T05:02:40.243Z,1017.54
2022-11-12T05:03:09.736Z,1017.54
2022-11-12T05:03:34.042Z,1017.44
2022-11-12T05:03:57.787Z,1017.44
2022-11-12T05:04:30.312Z,1017.44
2022-11-12T05:05:02.074Z,1017.44
2022-11-12T05:05:34.502Z,1017.54
2022-11-12T05:06:05.748Z,1017.54
2022-11-12T05:06:34.109Z,1017.44
2022-11-12T05:06:54.019Z,1017.44
2022-11-12T05:07:25.965Z,1017.44
2022-11-12T05:07:58.460Z,1017.34
2022-11-12T05:08:29.697Z,1017.34
2022-11-12T05:09:02.882Z,1017.24
2022-11-12T05:09:33.915Z,1017.24
2022-11-12T05:10:06.695Z,1017.24
2022-11-12T05:10:34.215Z,1017.24
2022-11-12T05:10:53.823Z,1017.24
2022-11-12T05:11:29.127Z,1017.24
2022-11-12T05:11:57.943Z,1017.24
2022-11-12T05:12:29.744Z,1017.24
2022-11-12T05:13:01.723Z,1017.34
2022-11-12T05:13:33.889Z,1017.34
2022-11-12T05:14:05.881Z,1017.34
2022-11-12T05:14:34.133Z,1017.24
2022-11-12T05:14:53.753Z,1017.24
2022-11-12T05:15:26.831Z,1017.24
2022-11-12T05:15:57.882Z,1017.34
2022-11-12T05:16:46.665Z,1017.13
2022-11-12T05:17:17.734Z,1017.13
2022-11-12T05:17:49.931Z,1017.34
2022-11-12T05:18:21.918Z,1017.34
2022-11-12T05:18:39.113Z,1017.34
2022-11-12T05:19:11.429Z,1017.34
2022-11-12T05:19:34.115Z,1017.13
2022-11-12T05:19:57.805Z,1017.13
2022-11-12T05:20:32.597Z,1017.13
2022-11-12T05:21:01.767Z,1017.34
2022-11-12T05:21:34.597Z,1017.13
2022-11-12T05:22:05.829Z,1017.13
2022-11-12T05:22:45.600Z,1017.34
2022-11-12T05:23:06.442Z,1017.34
2022-11-12T05:23:26.975Z,1017.34
2022-11-12T05:23:57.756Z,1017.34
2022-11-12T05:24:41.674Z,1017.34
2022-11-12T05:25:02.137Z,1017.24
2022-11-12T05:25:34.456Z,1017.34
2022-11-12T05:26:05.742Z,1017.34
2022-11-12T05:26:34.065Z,1017.13
2022-11-12T05:26:53.869Z,1017.13
2022-11-12T05:27:25.767Z,1017.13
2022-11-12T05:27:58.578Z,1017.03
2022-11-12T05:28:34.015Z,1017.03
2022-11-12T05:29:07.538Z,1017.03
2022-11-12T05:29:33.954Z,1017.03
2022-11-12T05:30:06.786Z,1017.03
2022-11-12T05:30:34.385Z,1017.24
2022-11-12T05:30:53.983Z,1017.24
2022-11-12T05:31:25.916Z,1017.24
2022-11-12T05:31:57.983Z,1017.03
2022-11-12T05:32:29.732Z,1017.03
2022-11-12T05:33:02.029Z,1017.03
2022-11-12T05:33:33.876Z,1017.03
2022-11-12T05:34:09.806Z,1017.03
2022-11-12T05:34:34.793Z,1017.13
2022-11-12T05:34:53.765Z,1017.13
2022-11-12T05:35:26.097Z,1017.13
2022-11-12T05:35:57.945Z,1017.03
2022-11-12T05:36:30.190Z,1017.03
2022-11-12T05:37:01.767Z,1017.24
2022-11-12T05:37:33.934Z,1017.03
2022-11-12T05:38:05.968Z,1017.03
2022-11-12T05:38:34.170Z,1017.13
2022-11-12T05:38:54.534Z,1017.13
2022-11-12T05:39:25.876Z,1017.13
2022-11-12T05:39:59.443Z,1017.13
2022-11-12T05:40:30.007Z,1017.13
2022-11-12T05:41:02.600Z,1017.13
2022-11-12T05:41:51.399Z,1017.24
2022-11-12T05:42:13.025Z,1017.24
2022-11-12T05:42:35.065Z,1017.03
2022-11-12T05:42:53.791Z,1017.03
2022-11-12T05:43:25.811Z,1017.03
2022-11-12T05:43:57.860Z,1017.13
2022-11-12T05:44:29.942Z,1017.13
2022-11-12T05:45:02.159Z,1017.03
2022-11-12T05:45:33.754Z,1017.03
2022-11-12T05:46:05.802Z,1017.03
2022-11-12T05:46:34.688Z,1017.13
2022-11-12T05:46:53.889Z,1017.13
2022-11-12T05:47:26.489Z,1017.13
2022-11-12T05:47:57.840Z,1017.03
2022-11-12T05:48:31.917Z,1017.03
2022-11-12T05:49:01.917Z,1017.34
2022-11-12T05:49:34.621Z,1017.24
2022-11-12T05:50:05.922Z,1017.24
2022-11-12T05:50:51.304Z,1017.24
2022-11-12T05:51:13.702Z,1017.24
2022-11-12T05:51:33.978Z,1017.24
2022-11-12T05:51:58.685Z,1017.24
2022-11-12T05:52:29.810Z,1017.24
2022-11-12T05:53:02.522Z,1017.13
2022-11-12T05:53:34.012Z,1017.24
2022-11-12T05:54:06.583Z,1017.24
2022-11-12T05:54:34.043Z,1017.13
2022-11-12T05:54:53.833Z,1017.13
2022-11-12T05:55:26.056Z,1017.13
2022-11-12T05:55:57.793Z,1017.13
2022-11-12T05:56:29.843Z,1017.13
2022-11-12T05:57:01.868Z,1017.24
2022-11-12T05:57:33.969Z,1016.93
2022-11-12T05:58:05.906Z,1016.93
2022-11-12T05:58:34.144Z,1017.13
2022-11-12T05:58:54.763Z,1017.13
2022-11-12T05:59:26.548Z,1017.13
2022-11-12T05:59:57.907Z,1017.24
2022-11-12T06:00:30.732Z,1017.24
2022-11-12T06:01:01.835Z,1016.93
2022-11-12T06:01:35.940Z,1017.13
2022-11-12T06:02:05.996Z,1017.13
2022-11-12T06:02:34.292Z,1017.24
2022-11-12T06:02:53.842Z,1017.24
2022-11-12T06:03:25.741Z,1017.24
2022-11-12T06:03:58.625Z,1017.13
2022-11-12T06:04:29.913Z,1017.13
2022-11-12T06:05:02.599Z,1017.03
2022-11-12T06:05:33.737Z,1017.03
2022-11-12T06:06:05.925Z,1017.03
2022-11-12T06:06:35.116Z,1017.13
2022-11-12T06:06:53.880Z,1017.13